Time;durP1;ratioP1;P1;durP2;ratioP2;P2;SDS_P1;SDS_P2;PMS_P1;PMS_P2;Temp;Humidity;BMP_temperature;BMP_pressure;BME280_temperature;BME280_humidity;BME280_pressure;Samples;Min_cycle;Max_cycle;Signal;HPM_P1;HPM_P2
2023/01/13 00:00:19;;;;;;;0.50;0.50;;;;;;;7.82;100.00;97655.59;4226640;27;20515;-75
2023/01/13 00:02:19;;;;;;;0.50;0.50;;;;;;;7.85;100.00;97661.13;4228493;27;20027;-75
2023/01/13 00:04:19;;;;;;;0.65;0.50;;;;;;;7.85;100.00;97650.09;4223752;27;20019;-76
2023/01/13 00:06:24;;;;;;;0.57;0.57;;;;;;;7.93;100.00;97650.97;4220597;28;20111;-76
2023/01/13 00:08:25;;;;;;;0.75;0.73;;;;;;;7.93;100.00;97639.94;4223003;27;20104;-75
2023/01/13 00:10:25;;;;;;;0.45;0.45;;;;;;;7.95;100.00;97658.88;4226890;27;20638;-76
2023/01/13 00:12:25;;;;;;;0.52;0.52;;;;;;;7.96;100.00;97652.19;4236721;27;20039;-75
2023/01/13 00:14:28;;;;;;;1.48;0.60;;;;;;;7.94;100.00;97662.78;4224422;27;20100;-75
2023/01/13 00:16:28;;;;;;;1.15;0.60;;;;;;;8.01;100.00;97654.56;4221759;27;20058;-75
2023/01/13 00:18:29;;;;;;;1.55;0.70;;;;;;;8.00;100.00;97648.28;4224224;27;20044;-76
2023/01/13 00:20:29;;;;;;;0.52;0.52;;;;;;;8.01;100.00;97651.81;4230109;27;20332;-76
2023/01/13 00:22:33;;;;;;;0.45;0.45;;;;;;;7.94;100.00;97640.75;4226685;27;20398;-76
2023/01/13 00:24:33;;;;;;;0.50;0.50;;;;;;;7.89;100.00;97644.66;4225650;27;20372;-75
2023/01/13 00:26:34;;;;;;;0.80;0.60;;;;;;;7.90;100.00;97637.97;4239603;27;20102;-75
2023/01/13 00:28:36;;;;;;;0.73;0.60;;;;;;;7.89;100.00;97642.69;4227098;27;20642;-76
2023/01/13 00:30:37;;;;;;;0.50;0.50;;;;;;;7.91;100.00;97633.25;4224973;27;20762;-75
2023/01/13 00:32:37;;;;;;;0.60;0.60;;;;;;;7.88;100.00;97648.59;4231699;27;20301;-75
2023/01/13 00:34:38;;;;;;;1.08;0.60;;;;;;;7.90;100.00;97635.22;4221430;27;20040;-75
2023/01/13 00:36:38;;;;;;;0.77;0.70;;;;;;;7.88;100.00;97632.06;4225051;27;20119;-75
2023/01/13 00:38:39;;;;;;;0.50;0.50;;;;;;;7.87;100.00;97631.25;4228181;27;20058;-75
2023/01/13 00:40:39;;;;;;;0.63;0.50;;;;;;;7.89;100.00;97615.16;4223156;27;20121;-75
2023/01/13 00:44:58;;;;;;;0.50;0.50;;;;;;;7.98;100.00;97617.56;4222114;27;20490;-76
2023/01/13 00:46:59;;;;;;;0.50;0.50;;;;;;;7.97;100.00;97604.19;4226005;27;20040;-75
2023/01/13 00:49:00;;;;;;;0.90;0.50;;;;;;;7.92;100.00;97601.78;4222779;27;20082;-75
2023/01/13 00:51:01;;;;;;;0.70;0.70;;;;;;;7.96;100.00;97613.63;4228009;27;20086;-76
2023/01/13 00:53:02;;;;;;;0.50;0.50;;;;;;;7.91;100.00;97612.00;4222721;27;20295;-75
2023/01/13 00:55:02;;;;;;;0.50;0.50;;;;;;;7.95;100.00;97604.56;4224619;27;20066;-75
2023/01/13 00:57:03;;;;;;;0.77;0.60;;;;;;;8.00;100.00;97597.91;4221481;27;20070;-75
2023/01/13 00:59:04;;;;;;;1.60;0.50;;;;;;;8.03;100.00;97613.69;4221563;27;20075;-75
2023/01/13 01:01:12;;;;;;;0.60;0.50;;;;;;;8.05;100.00;97603.06;4227214;27;20506;-75
2023/01/13 01:03:13;;;;;;;0.43;0.43;;;;;;;8.02;100.00;97592.78;4219381;27;20403;-75
2023/01/13 01:05:13;;;;;;;0.40;0.40;;;;;;;7.99;100.00;97599.88;4235361;27;20051;-75
2023/01/13 01:07:13;;;;;;;0.50;0.50;;;;;;;8.02;100.00;97598.31;4221461;27;20563;-75
2023/01/13 01:09:15;;;;;;;0.52;0.50;;;;;;;7.99;100.00;97602.63;4230304;27;20048;-76
2023/01/13 01:11:21;;;;;;;0.50;0.50;;;;;;;8.08;100.00;97607.81;4233334;27;20364;-75
2023/01/13 01:13:22;;;;;;;0.50;0.50;;;;;;;8.05;100.00;97597.56;4225974;27;20048;-75
2023/01/13 01:15:22;;;;;;;2.72;1.38;;;;;;;8.07;100.00;97595.19;4232653;27;20049;-75
2023/01/13 01:17:22;;;;;;;0.40;0.40;;;;;;;8.04;100.00;97601.50;4232194;27;20448;-75
2023/01/13 01:19:23;;;;;;;0.65;0.65;;;;;;;8.10;100.00;97589.72;4223773;27;20270;-75
2023/01/13 01:21:25;;;;;;;0.40;0.40;;;;;;;8.17;100.00;97592.50;4221262;27;20035;-76
2023/01/13 01:23:28;;;;;;;3.03;0.80;;;;;;;8.23;100.00;97586.66;4223525;27;20042;-75
2023/01/13 01:25:28;;;;;;;0.55;0.50;;;;;;;8.16;100.00;97604.72;4233795;27;20387;-75
2023/01/13 01:27:28;;;;;;;1.00;0.47;;;;;;;8.23;100.00;97586.66;4226184;27;20387;-75
2023/01/13 01:29:29;;;;;;;0.50;0.50;;;;;;;8.30;100.00;97608.75;4222326;27;20082;-75
2023/01/13 01:31:31;;;;;;;0.50;0.50;;;;;;;8.29;100.00;97612.69;4222798;27;20466;-75
2023/01/13 01:33:32;;;;;;;1.17;0.45;;;;;;;8.29;100.00;97605.22;4231058;27;20036;-75
2023/01/13 01:35:32;;;;;;;0.40;0.40;;;;;;;8.31;100.00;97593.78;4229847;27;20051;-76
2023/01/13 01:37:32;;;;;;;0.45;0.45;;;;;;;8.26;100.00;97597.69;4224245;27;20879;-75
2023/01/13 01:39:33;;;;;;;0.43;0.43;;;;;;;8.25;100.00;97587.06;4225591;27;20248;-75
2023/01/13 01:41:35;;;;;;;1.15;0.80;;;;;;;8.23;100.00;97600.44;4237257;27;20095;-75
2023/01/13 01:44:02;;;;;;;1.07;0.70;;;;;;;8.23;100.00;97583.91;4227719;27;20142;-76
2023/01/13 01:46:03;;;;;;;0.75;0.50;;;;;;;8.26;100.00;97589.41;4234427;27;20039;-75
2023/01/13 01:48:05;;;;;;;0.50;0.50;;;;;;;8.22;100.00;97582.31;4225732;27;20824;-75
2023/01/13 01:50:06;;;;;;;0.90;0.60;;;;;;;8.25;100.00;97574.06;4220862;27;20031;-75
2023/01/13 01:52:13;;;;;;;0.60;0.60;;;;;;;8.25;100.00;97585.09;4221974;27;20019;-75
2023/01/13 01:54:43;;;;;;;0.52;0.52;;;;;;;8.20;100.00;97581.91;4226969;27;20031;-75
2023/01/13 01:56:44;;;;;;;0.50;0.50;;;;;;;8.24;100.00;97578.00;4216918;27;20043;-75
2023/01/13 01:58:49;;;;;;;0.60;0.60;;;;;;;8.26;100.00;97581.16;4228780;27;20120;-75
2023/01/13 02:00:50;;;;;;;0.43;0.40;;;;;;;8.32;100.00;97579.63;4226026;27;20121;-75
2023/01/13 02:02:51;;;;;;;0.50;0.50;;;;;;;8.29;100.00;97572.13;4219908;27;20086;-75
2023/01/13 02:04:54;;;;;;;0.50;0.50;;;;;;;8.29;100.00;97594.19;4221011;27;20040;-75
2023/01/13 02:06:56;;;;;;;0.40;0.40;;;;;;;8.32;100.00;97592.63;4219981;27;20791;-76
2023/01/13 02:08:58;;;;;;;1.08;0.50;;;;;;;8.31;100.00;97572.53;4220316;27;20117;-75
2023/01/13 02:10:58;;;;;;;0.93;0.88;;;;;;;8.38;100.00;97578.13;4230024;27;20827;-76
2023/01/13 02:13:01;;;;;;;1.63;0.50;;;;;;;8.39;100.00;97567.88;4220238;27;20060;-75
2023/01/13 02:15:08;;;;;;;1.75;0.50;;;;;;;8.36;100.00;97560.41;4230218;27;20047;-75
2023/01/13 02:17:44;;;;;;;0.40;0.40;;;;;;;8.41;100.00;97552.53;4220239;27;20048;-75
2023/01/13 02:19:59;;;;;;;0.60;0.60;;;;;;;8.41;100.00;97555.28;4219876;27;20058;-75
2023/01/13 02:22:21;;;;;;;0.50;0.50;;;;;;;8.43;100.00;97546.63;4220736;27;20489;-75
2023/01/13 02:24:52;;;;;;;0.50;0.50;;;;;;;8.47;100.00;97561.22;4229032;27;20666;-75
2023/01/13 02:27:24;;;;;;;0.43;0.43;;;;;;;8.47;100.00;97558.47;4219588;27;20486;-75
2023/01/13 02:31:50;;;;;;;0.50;0.50;;;;;;;8.37;100.00;97542.69;4225334;27;20091;-75
2023/01/13 02:34:03;;;;;;;1.45;0.50;;;;;;;8.29;100.00;97541.81;4228963;27;20548;-75
2023/01/13 02:36:18;;;;;;;0.80;0.60;;;;;;;8.30;100.00;97535.13;4218374;27;20044;-75
2023/01/13 02:38:27;;;;;;;0.40;0.40;;;;;;;8.27;100.00;97537.84;4220041;27;20043;-75
2023/01/13 02:40:38;;;;;;;1.58;0.60;;;;;;;8.26;100.00;97525.25;4228635;27;20054;-75
2023/01/13 02:45:15;;;;;;;0.50;0.50;;;;;;;8.15;100.00;97519.69;4220337;27;20074;-75
2023/01/13 02:47:21;;;;;;;0.60;0.60;;;;;;;8.17;100.00;97518.13;4219822;27;20061;-76
2023/01/13 02:49:39;;;;;;;0.50;0.50;;;;;;;8.16;100.00;97516.53;4220032;27;20514;-75
2023/01/13 02:51:42;;;;;;;0.50;0.50;;;;;;;8.17;100.00;97506.31;4223604;27;20042;-75
2023/01/13 02:54:05;;;;;;;0.50;0.50;;;;;;;8.11;100.00;97502.38;4226030;27;20048;-75
2023/01/13 02:56:08;;;;;;;0.57;0.57;;;;;;;8.12;100.00;97513.00;4221100;27;20978;-75
2023/01/13 02:58:14;;;;;;;0.40;0.40;;;;;;;8.16;100.00;97510.25;4219825;27;20035;-75
2023/01/13 03:00:17;;;;;;;2.47;0.60;;;;;;;8.15;100.00;97506.69;4221693;27;20740;-75
2023/01/13 03:02:18;;;;;;;;;;;;;;;8.20;100.00;97516.56;4223731;27;20031;-75
2023/01/13 03:04:54;;;;;;;0.50;0.50;;;;;;;8.23;100.00;97523.28;4231149;27;19919;-75
2023/01/13 03:07:21;;;;;;;0.77;0.50;;;;;;;8.15;100.00;97520.47;4236296;27;20059;-75
2023/01/13 03:09:30;;;;;;;0.73;0.63;;;;;;;8.16;100.00;97513.78;4221057;27;20491;-75
2023/01/13 03:11:54;;;;;;;0.50;0.50;;;;;;;8.12;100.00;97507.47;4228847;27;20051;-75
2023/01/13 03:14:04;;;;;;;0.60;0.52;;;;;;;8.18;100.00;97518.91;4222441;27;20518;-75
2023/01/13 03:16:25;;;;;;;0.82;0.60;;;;;;;8.17;100.00;97509.06;4219447;27;20194;-75
2023/01/13 03:18:28;;;;;;;1.52;0.60;;;;;;;8.13;100.00;97509.06;4219602;28;20092;-75
2023/01/13 03:20:35;;;;;;;0.60;0.60;;;;;;;8.18;100.00;97507.88;4220297;27;20036;-75
2023/01/13 03:22:46;;;;;;;1.13;0.50;;;;;;;8.27;100.00;97502.81;4218396;27;20496;-75
2023/01/13 03:24:59;;;;;;;0.50;0.50;;;;;;;8.37;100.00;97495.81;4232561;27;20046;-75
2023/01/13 03:27:04;;;;;;;0.75;0.60;;;;;;;8.35;100.00;97495.41;4225992;27;20046;-75
2023/01/13 03:29:18;;;;;;;0.57;0.57;;;;;;;8.32;100.00;97507.97;4223060;27;20838;-75
2023/01/13 03:31:28;;;;;;;0.50;0.50;;;;;;;8.33;100.00;97504.03;4228593;27;20419;-75
2023/01/13 03:33:36;;;;;;;2.20;0.60;;;;;;;8.34;100.00;97504.81;4221537;27;20063;-75
2023/01/13 03:35:41;;;;;;;1.55;0.55;;;;;;;8.30;100.00;97493.78;4229820;27;20040;-76
2023/01/13 03:37:47;;;;;;;1.08;0.70;;;;;;;8.33;100.00;97492.22;4225632;27;20043;-75
2023/01/13 03:39:55;;;;;;;0.65;0.60;;;;;;;8.32;100.00;97491.44;4230804;27;20058;-75
2023/01/13 03:42:07;;;;;;;0.98;0.95;;;;;;;8.35;100.00;97506.44;4227836;27;20050;-75
2023/01/13 03:44:23;;;;;;;0.43;0.43;;;;;;;8.30;100.00;97498.50;4224715;27;20060;-75
2023/01/13 03:46:36;;;;;;;0.40;0.40;;;;;;;8.22;100.00;97505.97;4222437;27;20043;-75
2023/01/13 03:48:39;;;;;;;0.52;0.52;;;;;;;8.17;100.00;97495.28;4222231;27;20426;-75
2023/01/13 03:50:52;;;;;;;2.50;0.68;;;;;;;8.16;100.00;97497.25;4221840;27;20079;-75
2023/01/13 03:53:00;;;;;;;0.93;0.50;;;;;;;8.16;100.00;97497.25;4225687;27;20113;-75
2023/01/13 03:55:11;;;;;;;0.65;0.50;;;;;;;8.24;100.00;97497.28;4225491;27;20040;-75
2023/01/13 03:57:16;;;;;;;0.40;0.40;;;;;;;8.23;100.00;97493.75;4227812;27;20039;-75
2023/01/13 03:59:26;;;;;;;0.70;0.47;;;;;;;8.20;100.00;97500.06;4219725;27;20474;-75
2023/01/13 04:01:51;;;;;;;0.52;0.52;;;;;;;8.22;100.00;97507.91;4221582;27;20387;-76
2023/01/13 04:04:15;;;;;;;0.40;0.40;;;;;;;8.24;100.00;97505.56;4219865;27;20043;-75
2023/01/13 04:06:43;;;;;;;0.60;0.60;;;;;;;8.20;100.00;97499.25;4222773;27;20052;-75
2023/01/13 04:08:50;;;;;;;0.50;0.50;;;;;;;8.24;100.00;97491.78;4223752;27;20042;-75
2023/01/13 04:10:58;;;;;;;0.50;0.50;;;;;;;8.17;100.00;97490.56;4221909;27;20040;-75
2023/01/13 04:13:03;;;;;;;0.43;0.43;;;;;;;8.17;100.00;97489.78;4224101;27;20053;-75
2023/01/13 04:15:04;;;;;;;0.50;0.50;;;;;;;8.20;100.00;97486.28;4220653;28;20044;-75
2023/01/13 04:17:05;;;;;;;0.55;0.55;;;;;;;8.18;100.00;97485.84;4223461;27;20441;-75
2023/01/13 04:19:05;;;;;;;0.50;0.50;;;;;;;8.14;100.00;97485.06;4231899;27;20078;-75
2023/01/13 04:21:06;;;;;;;0.40;0.40;;;;;;;8.12;100.00;97492.91;4226056;27;20506;-75
2023/01/13 04:23:08;;;;;;;0.50;0.50;;;;;;;8.08;100.00;97489.34;4224615;27;20051;-75
2023/01/13 04:25:09;;;;;;;0.40;0.40;;;;;;;8.05;100.00;97474.38;4232202;27;20870;-75
2023/01/13 04:27:09;;;;;;;0.43;0.43;;;;;;;8.03;100.00;97476.75;4225665;27;20059;-75
2023/01/13 04:29:09;;;;;;;1.48;0.40;;;;;;;8.09;100.00;97479.91;4226911;27;20127;-76
2023/01/13 04:31:10;;;;;;;0.40;0.40;;;;;;;8.04;100.00;97472.81;4224249;27;20071;-75
2023/01/13 04:33:11;;;;;;;0.40;0.40;;;;;;;8.03;100.00;97475.94;4225547;27;20080;-75
2023/01/13 04:35:11;;;;;;;0.98;0.40;;;;;;;8.06;100.00;97483.44;4226486;27;20046;-75
2023/01/13 04:37:11;;;;;;;0.40;0.40;;;;;;;8.08;100.00;97494.84;4228117;27;20122;-75
2023/01/13 04:39:12;;;;;;;0.40;0.40;;;;;;;8.16;100.00;97489.00;4223211;27;20321;-75
2023/01/13 04:41:12;;;;;;;1.27;0.50;;;;;;;8.24;100.00;97489.81;4229401;27;20108;-75
2023/01/13 04:43:14;;;;;;;0.40;0.40;;;;;;;8.23;100.00;97496.50;4219952;27;20039;-75
2023/01/13 04:45:14;;;;;;;0.52;0.50;;;;;;;8.20;100.00;97496.50;4220238;27;20134;-75
2023/01/13 04:47:15;;;;;;;0.45;0.45;;;;;;;8.18;100.00;97497.66;4230592;27;20075;-75
2023/01/13 04:49:15;;;;;;;0.40;0.40;;;;;;;8.22;100.00;97499.66;4221243;27;20144;-75
2023/01/13 04:51:15;;;;;;;0.50;0.50;;;;;;;8.24;100.00;97492.56;4228158;27;20455;-75
2023/01/13 04:53:16;;;;;;;0.52;0.40;;;;;;;8.26;100.00;97504.00;4222973;27;20035;-75
2023/01/13 04:55:17;;;;;;;3.03;0.50;;;;;;;8.24;100.00;97489.81;4230074;27;20142;-75
2023/01/13 04:57:17;;;;;;;0.40;0.40;;;;;;;8.24;100.00;97483.53;4221427;27;20075;-75
2023/01/13 04:59:17;;;;;;;0.40;0.40;;;;;;;8.24;100.00;97489.03;4235535;27;20390;-75
2023/01/13 05:01:18;;;;;;;1.30;0.50;;;;;;;8.26;100.00;97492.97;4222455;27;20155;-75
2023/01/13 05:03:18;;;;;;;0.50;0.50;;;;;;;8.24;100.00;97492.56;4224416;27;20502;-75
2023/01/13 05:05:18;;;;;;;0.40;0.40;;;;;;;8.17;100.00;97485.06;4223085;27;20059;-75
2023/01/13 05:07:19;;;;;;;0.40;0.40;;;;;;;8.16;100.00;97485.44;4221525;27;20051;-75
2023/01/13 05:09:19;;;;;;;1.10;0.50;;;;;;;8.15;100.00;97484.66;4230115;27;20474;-75
2023/01/13 05:18:19;;;;;;;0.95;0.60;;;;;;;8.11;100.00;97486.63;4227635;27;20046;-75
2023/01/13 05:20:19;;;;;;;0.60;0.60;;;;;;;8.15;100.00;97490.16;4223920;27;20436;-75
2023/01/13 05:26:58;;;;;;;0.63;0.60;;;;;;;8.19;100.00;97509.47;4221656;27;20054;-75
2023/01/13 05:28:58;;;;;;;1.17;0.70;;;;;;;8.21;100.00;97509.88;4227999;27;20122;-75
2023/01/13 05:30:59;;;;;;;1.73;1.13;;;;;;;8.19;100.00;97509.47;4223081;27;20853;-75
2023/01/13 05:32:59;;;;;;;0.90;0.90;;;;;;;8.23;100.00;97512.25;4232949;27;20078;-75
2023/01/13 05:34:59;;;;;;;2.50;1.73;;;;;;;8.21;100.00;97515.41;4225118;27;20040;-75
2023/01/13 05:37:00;;;;;;;0.60;0.60;;;;;;;8.18;100.00;97521.66;4227424;27;20445;-75
2023/01/13 05:39:00;;;;;;;0.50;0.50;;;;;;;8.19;100.00;97517.72;4235352;27;20075;-75
2023/01/13 05:43:20;;;;;;;0.52;0.50;;;;;;;8.28;100.00;97526.47;4227532;27;20447;-75
2023/01/13 05:45:21;;;;;;;0.60;0.60;;;;;;;8.30;100.00;97520.56;4221060;27;20134;-75
2023/01/13 05:47:21;;;;;;;0.50;0.50;;;;;;;8.30;100.00;97526.06;4231723;27;20430;-75
2023/01/13 05:49:22;;;;;;;0.80;0.80;;;;;;;8.25;100.00;97527.22;4231770;27;20222;-75
2023/01/13 05:51:25;;;;;;;0.50;0.50;;;;;;;8.25;100.00;97537.44;4234228;27;20058;-76
2023/01/13 05:53:25;;;;;;;0.57;0.57;;;;;;;8.24;100.00;97539.41;4223007;27;20051;-76
2023/01/13 05:55:26;;;;;;;1.48;0.80;;;;;;;8.27;100.00;97562.66;4220696;27;20318;-77
2023/01/13 05:57:26;;;;;;;1.63;0.75;;;;;;;8.10;100.00;97591.66;4220699;27;20044;-76
2023/01/13 05:59:26;;;;;;;3.45;0.75;;;;;;;7.75;100.00;97575.69;4220613;27;20097;-76
2023/01/13 06:01:26;;;;;;;2.65;1.40;;;;;;;7.42;100.00;97571.06;4228008;27;20122;-77
2023/01/13 06:03:27;;;;;;;5.68;2.70;;;;;;;7.12;100.00;97571.19;4226105;27;20138;-77
2023/01/13 06:05:27;;;;;;;3.10;1.90;;;;;;;6.86;100.00;97572.03;4225469;27;20138;-77
2023/01/13 06:07:29;;;;;;;1.00;0.68;;;;;;;6.81;100.00;97569.66;4231567;27;20063;-77
2023/01/13 06:09:29;;;;;;;2.40;0.90;;;;;;;6.73;100.00;97580.56;4162272;27;20168;-77
2023/01/13 06:11:30;;;;;;;1.10;0.80;;;;;;;6.59;100.00;97579.59;4219228;28;20514;-77
2023/01/13 06:13:30;;;;;;;0.55;0.55;;;;;;;6.57;100.00;97590.16;4219349;28;20051;-77
2023/01/13 06:15:31;;;;;;;2.58;1.17;;;;;;;6.50;100.00;97590.84;4221902;27;20048;-77
2023/01/13 06:17:31;;;;;;;1.35;0.75;;;;;;;6.47;100.00;97591.63;4220982;27;20048;-77
2023/01/13 06:19:32;;;;;;;0.50;0.50;;;;;;;6.43;100.00;97599.78;4234021;27;20108;-77
2023/01/13 06:21:32;;;;;;;1.83;0.73;;;;;;;6.46;100.00;97609.28;4220452;27;20043;-77
2023/01/13 06:23:34;;;;;;;0.63;0.63;;;;;;;6.38;100.00;97608.38;4219792;27;20562;-77
2023/01/13 06:25:52;;;;;;;0.88;0.70;;;;;;;6.30;100.00;97612.19;4219942;27;20052;-76
2023/01/13 06:27:55;;;;;;;1.88;0.60;;;;;;;6.33;100.00;97622.41;4219728;27;20043;-77
2023/01/13 06:29:55;;;;;;;0.55;0.50;;;;;;;6.26;100.00;97630.56;4219865;28;20117;-77
2023/01/13 06:31:57;;;;;;;2.75;0.60;;;;;;;6.23;100.00;97642.28;4223557;27;20506;-76
2023/01/13 06:34:03;;;;;;;0.55;0.50;;;;;;;6.19;100.00;97652.41;4219010;27;20044;-77
2023/01/13 06:36:11;;;;;;;1.08;0.57;;;;;;;6.12;100.00;97652.31;4228550;27;20047;-76
2023/01/13 06:38:14;;;;;;;2.05;0.50;;;;;;;6.08;100.00;97665.19;4217204;28;20035;-77
2023/01/13 06:40:14;;;;;;;0.63;0.50;;;;;;;5.94;100.00;97649.28;4230041;27;20027;-78
2023/01/13 06:44:33;;;;;;;0.60;0.60;;;;;;;5.84;100.00;97667.13;4219016;27;20096;-76
2023/01/13 06:46:34;;;;;;;1.00;0.70;;;;;;;5.87;100.00;97682.06;4228862;27;20046;-77
2023/01/13 06:48:34;;;;;;;2.05;0.93;;;;;;;5.86;100.00;97667.56;4219123;27;20656;-76
2023/01/13 06:50:35;;;;;;;1.15;0.73;;;;;;;5.79;100.00;97678.44;4216977;28;20039;-76
2023/01/13 06:52:35;;;;;;;1.45;0.80;;;;;;;5.77;100.00;97683.47;4226233;27;20043;-77
2023/01/13 06:54:35;;;;;;;0.98;0.60;;;;;;;5.73;100.00;97685.38;4231692;27;20384;-76
2023/01/13 06:56:36;;;;;;;1.48;0.90;;;;;;;5.68;100.00;97679.38;4234838;27;20370;-77
2023/01/13 06:58:36;;;;;;;1.27;0.80;;;;;;;5.60;100.00;97662.78;4221538;27;20507;-77
2023/01/13 07:00:36;;;;;;;2.45;0.65;;;;;;;5.57;100.00;97654.50;4228734;27;20118;-77
2023/01/13 07:02:37;;;;;;;1.50;0.70;;;;;;;5.57;100.00;97647.06;4219140;27;20131;-77
2023/01/13 07:04:37;;;;;;;1.45;0.80;;;;;;;5.54;100.00;97647.78;4221167;27;20477;-77
2023/01/13 07:06:37;;;;;;;1.25;0.70;;;;;;;5.53;100.00;97639.91;4219652;27;20055;-76
2023/01/13 07:08:38;;;;;;;1.10;0.65;;;;;;;5.53;100.00;97637.97;4221818;27;20097;-77
2023/01/13 07:10:38;;;;;;;1.10;1.00;;;;;;;5.56;100.00;97633.72;4219723;27;20341;-77
2023/01/13 07:15:17;;;;;;;1.27;0.93;;;;;;;5.53;100.00;97629.72;4231195;27;20979;-77
2023/01/13 07:17:23;;;;;;;1.38;0.80;;;;;;;5.51;100.00;97623.81;4218150;28;20051;-77
2023/01/13 07:19:24;;;;;;;1.58;1.35;;;;;;;5.49;100.00;97628.91;4224817;27;20089;-77
2023/01/13 07:21:24;;;;;;;0.60;0.60;;;;;;;5.50;100.00;97635.16;4219667;28;20444;-77
2023/01/13 07:23:27;;;;;;;0.50;0.50;;;;;;;5.48;100.00;97630.06;4231848;27;20838;-76
2023/01/13 07:25:27;;;;;;;0.50;0.50;;;;;;;5.49;100.00;97617.91;4218577;27;20078;-76
2023/01/13 07:27:28;;;;;;;0.40;0.40;;;;;;;5.55;100.00;97619.22;4223816;27;20063;-76
2023/01/13 07:29:28;;;;;;;1.30;0.50;;;;;;;5.55;100.00;97623.91;4219146;27;20040;-76
2023/01/13 07:31:28;;;;;;;0.50;0.50;;;;;;;5.54;100.00;97617.59;4222813;27;20050;-77
2023/01/13 07:33:32;;;;;;;0.50;0.50;;;;;;;5.62;100.00;97618.50;4223835;27;20522;-76
2023/01/13 07:35:32;;;;;;;0.50;0.50;;;;;;;5.63;100.00;97625.63;4227898;27;20123;-76
2023/01/13 07:37:34;;;;;;;1.52;0.47;;;;;;;5.64;100.00;97624.44;4219590;27;20736;-76
2023/01/13 07:39:35;;;;;;;0.50;0.50;;;;;;;5.63;100.00;97620.91;4224664;27;20170;-76
2023/01/13 07:43:54;;;;;;;0.60;0.60;;;;;;;5.70;100.00;97644.13;4225586;27;20058;-76
2023/01/13 07:45:57;;;;;;;0.55;0.55;;;;;;;5.74;100.00;97651.28;4220587;27;20257;-76
2023/01/13 07:47:57;;;;;;;0.57;0.45;;;;;;;5.70;100.00;97658.66;4223724;28;20075;-76
2023/01/13 07:49:57;;;;;;;2.13;0.57;;;;;;;5.73;100.00;97657.13;4225770;27;20069;-75
2023/01/13 07:51:58;;;;;;;3.70;1.48;;;;;;;5.83;100.00;97648.28;4227555;28;20467;-75
2023/01/13 07:53:58;;;;;;;1.98;0.80;;;;;;;5.78;100.00;97638.41;4227076;28;20048;-76
2023/01/13 07:56:00;;;;;;;0.60;0.47;;;;;;;5.81;100.00;97637.69;4232310;28;20046;-76
2023/01/13 07:58:00;;;;;;;0.50;0.50;;;;;;;5.80;100.00;97613.34;4224492;27;20514;-75
2023/01/13 08:00:01;;;;;;;3.17;0.73;;;;;;;5.77;100.00;97625.03;4231343;27;20047;-76
2023/01/13 08:02:02;;;;;;;2.92;0.77;;;;;;;5.77;98.70;97649.75;4227473;27;20593;-76
2023/01/13 08:04:02;;;;;;;2.28;0.70;;;;;;;5.72;99.91;97652.81;4233017;27;20039;-75
2023/01/13 08:06:03;;;;;;;2.55;0.80;;;;;;;5.67;100.00;97666.81;4220019;27;20130;-75
2023/01/13 08:08:04;;;;;;;2.63;1.75;;;;;;;5.63;100.00;97664.81;4220472;27;20664;-75
2023/01/13 08:10:05;;;;;;;2.47;0.70;;;;;;;5.54;100.00;97661.50;4221488;27;20059;-75
2023/01/13 08:14:25;;;;;;;2.17;0.60;;;;;;;5.52;100.00;97666.56;4223535;27;20086;-75
2023/01/13 08:16:25;;;;;;;4.10;1.45;;;;;;;5.47;100.00;97688.84;4224956;27;20063;-75
2023/01/13 08:18:25;;;;;;;0.93;0.80;;;;;;;5.44;100.00;97694.22;4224523;27;20422;-75
2023/01/13 08:20:26;;;;;;;0.60;0.60;;;;;;;5.44;100.00;97681.31;4227354;27;20040;-75
2023/01/13 08:22:26;;;;;;;3.17;0.70;;;;;;;5.49;100.00;97639.06;4232607;27;20043;-75
2023/01/13 08:24:26;;;;;;;1.20;0.68;;;;;;;5.49;100.00;97663.78;4232905;27;20047;-75
2023/01/13 08:26:27;;;;;;;1.95;0.73;;;;;;;5.50;100.00;97659.88;4225210;27;20468;-75
2023/01/13 08:28:27;;;;;;;0.98;0.60;;;;;;;5.49;100.00;97636.34;4229114;27;20039;-75
2023/01/13 08:30:28;;;;;;;0.98;0.70;;;;;;;5.46;100.00;97562.97;4236743;27;20074;-75
2023/01/13 08:32:28;;;;;;;2.05;0.93;;;;;;;5.43;100.00;97578.22;4235001;27;20043;-76
2023/01/13 08:34:28;;;;;;;2.60;1.55;;;;;;;5.42;100.00;97595.84;4222100;27;20035;-75
2023/01/13 08:36:29;;;;;;;1.23;0.90;;;;;;;5.38;100.00;97608.72;4235534;27;20651;-75
2023/01/13 08:38:29;;;;;;;1.50;0.75;;;;;;;5.33;100.00;97629.00;4226863;27;20054;-75
2023/01/13 08:40:30;;;;;;;2.45;1.05;;;;;;;5.33;100.00;97642.72;4221572;27;20084;-75
2023/01/13 08:42:30;;;;;;;2.13;0.95;;;;;;;5.32;100.00;97645.81;4230679;27;20563;-75
2023/01/13 08:44:31;;;;;;;2.10;1.00;;;;;;;5.30;100.00;97642.66;4221631;27;20066;-75
2023/01/13 08:46:31;;;;;;;3.30;1.60;;;;;;;5.36;100.00;97647.47;4221740;27;20471;-75
2023/01/13 08:48:32;;;;;;;4.05;1.60;;;;;;;5.35;100.00;97648.63;4227186;27;20514;-76
2023/01/13 08:50:32;;;;;;;2.15;1.00;;;;;;;5.36;100.00;97654.91;4221492;27;20075;-75
2023/01/13 08:52:32;;;;;;;1.23;0.80;;;;;;;5.37;100.00;97659.22;4224697;27;20170;-76
2023/01/13 08:54:33;;;;;;;0.60;0.60;;;;;;;5.38;100.00;97660.84;4236368;27;20047;-75
2023/01/13 08:56:33;;;;;;;0.60;0.60;;;;;;;5.42;99.92;97664.44;4227915;27;20036;-75
2023/01/13 08:58:34;;;;;;;3.13;0.80;;;;;;;5.39;100.00;97665.16;4223375;27;20298;-75
2023/01/13 09:00:34;;;;;;;2.25;0.68;;;;;;;5.36;100.00;97669.41;4221821;27;20572;-75
2023/01/13 09:02:34;;;;;;;0.60;0.60;;;;;;;5.33;100.00;97664.66;4232866;27;20551;-75
2023/01/13 09:04:35;;;;;;;0.70;0.60;;;;;;;5.36;100.00;97674.91;4232143;27;20135;-75
2023/01/13 09:06:35;;;;;;;0.63;0.63;;;;;;;5.33;100.00;97686.59;4236643;27;20039;-75
2023/01/13 09:08:35;;;;;;;0.50;0.50;;;;;;;5.34;100.00;97677.22;4224528;27;20065;-75
2023/01/13 09:10:36;;;;;;;0.50;0.50;;;;;;;5.36;100.00;97677.63;4230969;27;20075;-76
2023/01/13 09:14:55;;;;;;;2.28;0.90;;;;;;;5.30;100.00;97681.06;4229553;27;20496;-75
2023/01/13 09:16:56;;;;;;;1.90;0.93;;;;;;;5.35;100.00;97688.97;4227757;27;20039;-75
2023/01/13 09:18:57;;;;;;;3.90;1.77;;;;;;;5.37;100.00;97697.63;4221156;28;20556;-75
2023/01/13 09:20:58;;;;;;;3.75;1.88;;;;;;;5.42;100.00;97707.53;4220486;28;20310;-75
2023/01/13 09:22:58;;;;;;;3.20;1.13;;;;;;;5.46;100.00;97705.63;4231686;27;20032;-75
2023/01/13 09:24:58;;;;;;;0.65;0.60;;;;;;;5.51;99.91;97700.66;4228849;27;20327;-75
2023/01/13 09:26:58;;;;;;;0.60;0.60;;;;;;;5.67;98.83;97697.03;4221169;27;20044;-75
2023/01/13 09:28:59;;;;;;;2.50;0.75;;;;;;;5.81;98.09;97703.56;4225431;27;20047;-75
2023/01/13 09:31:00;;;;;;;3.75;1.10;;;;;;;5.79;98.61;97700.41;4223965;27;20100;-75
2023/01/13 09:35:19;;;;;;;1.52;0.88;;;;;;;5.84;97.59;97686.34;4220019;27;20096;-75
2023/01/13 09:37:19;;;;;;;0.77;0.68;;;;;;;5.87;97.88;97695.78;4221038;27;20044;-75
2023/01/13 09:39:21;;;;;;;1.23;0.80;;;;;;;5.91;98.34;97702.97;4228776;27;20103;-75
2023/01/13 09:43:53;;;;;;;3.00;1.05;;;;;;;6.07;97.27;97729.53;4227993;27;20050;-75
2023/01/13 09:48:50;;;;;;;6.75;1.10;;;;;;;6.27;96.33;97731.03;4225301;27;20081;-75
2023/01/13 09:51:08;;;;;;;1.73;0.80;;;;;;;6.26;96.73;97725.91;4233502;27;20031;-75
2023/01/13 09:53:18;;;;;;;2.88;0.85;;;;;;;6.28;96.29;97734.56;4223228;27;20095;-76
2023/01/13 09:55:24;;;;;;;1.63;1.00;;;;;;;6.24;95.65;97731.78;4232772;27;20098;-75
2023/01/13 09:57:27;;;;;;;1.63;0.68;;;;;;;6.23;96.00;97741.19;4234523;27;20069;-75
2023/01/13 09:59:35;;;;;;;1.67;0.95;;;;;;;6.14;96.98;97732.41;4221536;27;20040;-74
2023/01/13 10:01:50;;;;;;;1.23;0.80;;;;;;;6.16;96.93;97732.81;4220905;27;20657;-74
2023/01/13 10:03:51;;;;;;;2.13;0.75;;;;;;;6.17;96.47;97728.91;4222976;27;20467;-75
2023/01/13 10:06:09;;;;;;;2.70;0.70;;;;;;;6.28;95.90;97735.34;4233118;27;20049;-75
2023/01/13 10:08:18;;;;;;;5.50;1.60;;;;;;;6.29;95.59;97731.47;4219846;27;20250;-74
2023/01/13 10:10:40;;;;;;;1.45;0.80;;;;;;;6.33;95.71;97731.53;4223160;27;20038;-75
2023/01/13 10:15:03;;;;;;;3.08;0.80;;;;;;;6.39;94.83;97730.84;4221003;27;20749;-75
2023/01/13 10:17:16;;;;;;;2.40;0.82;;;;;;;6.43;94.36;97725.41;4220273;27;20036;-75
2023/01/13 10:19:19;;;;;;;3.13;0.93;;;;;;;6.41;94.79;97723.03;4226291;27;20047;-75
2023/01/13 10:21:47;;;;;;;2.63;1.70;;;;;;;6.38;94.59;97712.78;4220902;27;20047;-74
2023/01/13 10:24:07;;;;;;;5.15;1.38;;;;;;;6.30;94.21;97702.84;4219733;27;20494;-75
2023/01/13 10:26:40;;;;;;;4.40;1.20;;;;;;;6.31;92.80;97706.38;4222610;27;20096;-75